createdAt,value
2022-10-24T00:01:53.185Z,31.20
2022-10-24T00:04:21.248Z,31.10
2022-10-24T00:06:49.375Z,30.90
2022-10-24T00:09:17.711Z,30.90
2022-10-24T00:11:45.997Z,30.80
2022-10-24T00:14:15.568Z,30.80
2022-10-24T00:16:43.741Z,31.20
2022-10-24T00:19:11.780Z,31.50
2022-10-24T00:21:39.970Z,31.70
2022-10-24T00:24:08.249Z,31.40
2022-10-24T00:26:36.347Z,31.30
2022-10-24T00:29:04.538Z,31.10
2022-10-24T00:31:34.503Z,31.60
2022-10-24T00:34:02.786Z,31.00
2022-10-24T00:36:31.648Z,30.90
2022-10-24T00:38:59.805Z,30.80
2022-10-24T00:41:29.368Z,30.60
2022-10-24T00:44:17.200Z,31.00
2022-10-24T00:46:48.360Z,31.10
2022-10-24T00:49:17.444Z,31.60
2022-10-24T00:51:45.815Z,31.50
2022-10-24T00:54:15.576Z,31.30
2022-10-24T00:56:46.131Z,31.20
2022-10-24T00:59:14.514Z,31.10
2022-10-24T01:01:43.504Z,31.00
2022-10-24T01:04:13.566Z,30.90
2022-10-24T01:06:49.337Z,30.80
2022-10-24T01:09:23.992Z,30.70
2022-10-24T01:11:59.136Z,30.80
2022-10-24T01:14:31.199Z,31.20
2022-10-24T01:17:01.958Z,31.50
2022-10-24T01:19:43.953Z,31.70
2022-10-24T01:22:13.657Z,32.00
2022-10-24T01:24:52.194Z,32.20
2022-10-24T01:27:35.110Z,32.30
2022-10-24T01:30:06.457Z,31.90
2022-10-24T03:15:59.588Z,31.10
2022-10-24T03:18:27.957Z,31.50
2022-10-24T03:20:56.218Z,31.80
2022-10-24T03:23:28.597Z,32.00
2022-10-24T03:25:57.091Z,32.20
2022-10-24T03:28:25.440Z,32.30
2022-10-24T03:30:53.732Z,31.90
2022-10-24T03:33:23.394Z,31.80
2022-10-24T03:35:53.453Z,31.60
2022-10-24T03:38:21.958Z,32.00
2022-10-24T03:40:50.354Z,31.30
2022-10-24T03:43:19.483Z,31.20
2022-10-24T03:45:47.893Z,31.10
2022-10-24T03:48:16.280Z,31.00
2022-10-24T03:50:46.010Z,31.30
2022-10-24T03:53:14.249Z,31.60
2022-10-24T03:55:42.581Z,31.90
2022-10-24T03:58:10.832Z,31.60
2022-10-24T04:00:40.761Z,31.50
2022-10-24T04:03:09.808Z,31.40
2022-10-24T04:08:08.917Z,31.10
2022-10-24T04:10:37.235Z,31.00
2022-10-24T04:13:06.682Z,30.90
2022-10-24T04:15:35.091Z,30.80
2022-10-24T04:18:03.339Z,31.10
2022-10-24T04:20:31.650Z,31.50
2022-10-24T04:23:02.282Z,31.70
2022-10-24T04:25:34.113Z,31.70
2022-10-24T04:28:02.377Z,31.40
2022-10-24T04:30:30.700Z,31.40
2022-10-24T04:32:58.955Z,31.20
2022-10-24T04:35:31.776Z,31.10
2022-10-24T04:38:00.522Z,31.00
2022-10-24T04:40:58.522Z,30.90
2022-10-24T04:43:27.646Z,30.80
2022-10-24T04:45:56.771Z,31.00
2022-10-24T04:48:25.597Z,31.30
2022-10-24T04:50:54.258Z,31.50
2022-10-24T04:53:23.310Z,31.60
2022-10-24T04:55:53.533Z,31.30
2022-10-24T04:58:22.479Z,31.30
2022-10-24T05:00:52.212Z,31.10
2022-10-24T05:03:21.177Z,31.10
2022-10-24T05:05:50.382Z,30.90
2022-10-24T05:08:18.882Z,30.80
2022-10-24T05:10:49.337Z,30.70
2022-10-24T05:13:21.397Z,30.80
2022-10-24T05:15:50.985Z,31.10
2022-10-24T05:18:28.128Z,31.50
2022-10-24T05:20:58.908Z,31.70
2022-10-24T05:23:29.115Z,31.90
2022-10-24T05:25:58.599Z,32.00
2022-10-24T05:28:30.504Z,32.20
2022-10-24T05:30:59.050Z,31.90
2022-10-24T05:33:28.036Z,31.70
2022-10-24T05:35:57.411Z,31.60
2022-10-24T05:38:26.675Z,31.50
2022-10-24T05:40:55.633Z,31.30
2022-10-24T05:43:24.645Z,31.20
2022-10-24T05:45:55.629Z,31.10
2022-10-24T05:48:24.736Z,31.00
2022-10-24T05:50:58.065Z,31.30
2022-10-24T05:53:27.181Z,31.60
2022-10-24T05:55:56.226Z,31.80
2022-10-24T05:58:25.441Z,31.80
2022-10-24T06:00:56.322Z,31.50
2022-10-24T06:03:25.869Z,31.40
2022-10-24T06:05:55.051Z,31.30
2022-10-24T06:08:28.904Z,31.20
2022-10-24T06:11:13.582Z,31.10
2022-10-24T06:13:44.498Z,31.00
2022-10-24T06:16:16.302Z,30.80
2022-10-24T06:18:45.318Z,31.10
2022-10-24T06:21:17.214Z,31.30
2022-10-24T06:23:46.533Z,31.60
2022-10-24T06:26:18.210Z,31.70
2022-10-24T06:28:48.424Z,31.40
2022-10-24T06:31:20.813Z,31.30
2022-10-24T06:33:54.457Z,31.20
2022-10-24T06:36:31.537Z,31.10
2022-10-24T06:39:01.089Z,31.00
2022-10-24T06:41:31.761Z,30.90
2022-10-24T06:44:00.892Z,30.70
2022-10-24T06:46:31.206Z,30.70
2022-10-24T06:49:23.754Z,31.10
2022-10-24T06:52:00.156Z,31.40
2022-10-24T06:54:30.676Z,31.50
2022-10-24T06:57:33.254Z,31.40
2022-10-24T07:00:18.987Z,31.30
2022-10-24T07:02:50.303Z,31.20
2022-10-24T07:05:18.947Z,31.10
2022-10-24T07:07:47.599Z,30.90
2022-10-24T07:10:16.247Z,30.80
2022-10-24T07:12:56.877Z,30.70
2022-10-24T07:15:25.736Z,30.90
2022-10-24T07:17:56.457Z,31.30
2022-10-24T07:20:24.645Z,31.50
2022-10-24T07:22:52.871Z,31.70
2022-10-24T07:25:21.119Z,31.90
2022-10-24T07:27:52.551Z,32.10
2022-10-24T07:30:20.679Z,32.30
2022-10-24T07:32:48.849Z,31.90
2022-10-24T07:35:18.519Z,31.80
2022-10-24T07:37:46.804Z,31.60
2022-10-24T07:40:15.247Z,31.40
2022-10-24T07:42:43.793Z,31.30
2022-10-24T07:45:12.694Z,31.10
2022-10-24T07:47:40.849Z,31.10
2022-10-24T07:50:10.332Z,30.90
2022-10-24T07:52:39.838Z,31.20
2022-10-24T07:55:08.439Z,31.60
2022-10-24T07:57:36.615Z,31.80
2022-10-24T08:00:05.530Z,31.80
2022-10-24T08:02:34.066Z,31.50
2022-10-24T08:05:02.189Z,31.40
2022-10-24T08:07:30.294Z,31.30
2022-10-24T08:09:59.857Z,31.10
2022-10-24T08:12:27.994Z,31.10
2022-10-24T08:14:56.193Z,30.90
2022-10-24T08:17:24.759Z,30.70
2022-10-24T08:19:52.949Z,30.70
2022-10-24T08:22:21.085Z,31.00
2022-10-24T08:24:49.209Z,31.60
2022-10-24T08:27:18.823Z,31.60
2022-10-24T08:29:46.950Z,31.50
2022-10-24T08:32:15.090Z,31.40
2022-10-24T08:34:43.507Z,31.20
2022-10-24T08:37:11.678Z,31.10
2022-10-24T08:39:39.836Z,31.00
2022-10-24T08:42:08.863Z,30.80
2022-10-24T08:44:40.090Z,30.70
2022-10-24T08:47:10.405Z,30.70
2022-10-24T08:49:39.919Z,30.80
2022-10-24T08:52:13.079Z,31.10
2022-10-24T08:54:42.355Z,31.40
2022-10-24T08:57:11.096Z,31.60
2022-10-24T08:59:40.593Z,31.20
2022-10-24T09:02:15.061Z,31.20
2022-10-24T09:04:46.846Z,31.10
2022-10-24T09:07:17.214Z,31.00
2022-10-24T09:09:47.142Z,30.80
2022-10-24T09:12:15.786Z,30.80
2022-10-24T09:14:47.272Z,30.70
2022-10-24T09:19:50.249Z,31.00
2022-10-24T09:22:18.361Z,31.50
2022-10-24T09:24:47.838Z,31.60
2022-10-24T09:27:17.231Z,31.90
2022-10-24T09:29:46.734Z,32.00
2022-10-24T09:32:16.648Z,32.20
2022-10-24T09:34:45.064Z,31.90
2022-10-24T09:37:37.614Z,31.60
2022-10-24T09:40:17.350Z,31.60
2022-10-24T09:42:50.610Z,31.40
2022-10-24T09:45:31.113Z,31.20
2022-10-24T09:47:59.924Z,31.10
2022-10-24T09:50:28.029Z,31.00
2022-10-24T09:52:58.617Z,30.90
2022-10-24T09:55:29.372Z,31.20
2022-10-24T09:58:00.683Z,31.40
2022-10-24T10:00:33.676Z,31.80
2022-10-24T10:03:04.224Z,31.60
2022-10-24T10:05:44.361Z,31.40
2022-10-24T10:08:13.913Z,31.30
2022-10-24T10:10:42.031Z,31.10
2022-10-24T10:13:22.927Z,31.00
2022-10-24T10:15:53.723Z,30.90
2022-10-24T10:18:43.561Z,30.90
2022-10-24T10:21:13.024Z,30.70
2022-10-24T10:23:42.353Z,31.10
2022-10-24T10:26:22.060Z,31.40
2022-10-24T10:28:58.870Z,31.70
2022-10-24T10:31:34.694Z,31.40
2022-10-24T10:34:09.136Z,31.30
2022-10-24T10:36:41.123Z,31.80
2022-10-24T10:39:20.002Z,31.10
2022-10-24T10:41:49.414Z,30.90
2022-10-24T10:44:46.518Z,30.80
2022-10-24T10:47:23.889Z,30.70
2022-10-24T10:49:56.146Z,30.80
2022-10-24T10:52:25.522Z,31.20
2022-10-24T10:55:22.520Z,31.30
2022-10-24T10:57:52.825Z,31.50
2022-10-24T11:00:23.215Z,31.30
2022-10-24T11:03:09.040Z,31.10
2022-10-24T11:05:47.667Z,31.00
2022-10-24T11:08:28.963Z,30.90
2022-10-24T11:10:59.435Z,30.80
2022-10-24T11:13:32.521Z,30.70
2022-10-24T11:16:03.376Z,30.60
2022-10-24T11:18:35.591Z,30.80
2022-10-24T11:21:05.271Z,30.90
2022-10-24T11:23:35.215Z,31.20
2022-10-24T11:26:04.342Z,31.40
2022-10-24T11:28:34.106Z,31.70
2022-10-24T11:31:04.656Z,32.10
2022-10-24T11:33:36.214Z,32.30
2022-10-24T11:36:15.052Z,31.80
2022-10-24T11:38:46.650Z,31.70
2022-10-24T11:41:29.851Z,31.50
2022-10-24T11:43:58.231Z,31.40
2022-10-24T11:46:27.597Z,31.10
2022-10-24T11:48:58.546Z,31.00
2022-10-24T11:51:29.285Z,30.90
2022-10-24T11:53:58.837Z,30.90
2022-10-24T11:56:31.912Z,31.10
2022-10-24T11:59:01.282Z,31.30
2022-10-24T12:01:58.727Z,31.40
2022-10-24T12:05:02.315Z,31.70
2022-10-24T12:08:09.304Z,31.30
2022-10-24T12:10:50.758Z,31.20
2022-10-24T12:13:42.537Z,31.10
2022-10-24T12:16:13.991Z,30.90
2022-10-24T12:18:43.091Z,30.80
2022-10-24T12:21:13.985Z,30.70
2022-10-24T12:23:42.189Z,30.80
2022-10-24T12:26:18.570Z,31.20
2022-10-24T12:28:54.587Z,31.40
2022-10-24T12:31:26.208Z,31.60
2022-10-24T12:34:31.872Z,31.30
2022-10-24T12:37:08.223Z,31.20
2022-10-24T12:39:37.270Z,31.00
2022-10-24T12:42:05.466Z,30.90
2022-10-24T12:44:51.690Z,30.80
2022-10-24T12:47:36.506Z,30.70
2022-10-24T12:50:42.341Z,30.60
2022-10-24T12:53:37.637Z,30.80
2022-10-24T12:56:16.900Z,30.90
2022-10-24T12:59:01.192Z,31.30
2022-10-24T13:01:33.485Z,31.30
2022-10-24T13:04:30.305Z,31.20
2022-10-24T13:07:34.081Z,31.00
2022-10-24T13:10:15.686Z,30.90
2022-10-24T13:12:51.659Z,30.70
2022-10-24T13:15:26.498Z,30.60
2022-10-24T13:18:01.202Z,30.50
2022-10-24T13:20:31.909Z,30.70
2022-10-24T13:23:01.797Z,31.10
2022-10-24T13:25:34.630Z,31.30
2022-10-24T13:28:39.119Z,31.40
2022-10-24T13:31:45.485Z,31.70
2022-10-24T13:34:40.942Z,32.10
2022-10-24T13:37:15.936Z,31.80
2022-10-24T13:39:47.869Z,31.60
2022-10-24T17:50:11.959Z,31.30
2022-10-24T17:52:42.242Z,31.10
2022-10-24T17:55:27.803Z,31.00
2022-10-24T17:58:02.978Z,31.00
2022-10-24T18:00:31.214Z,31.50
2022-10-24T18:02:59.803Z,31.80
2022-10-24T18:05:29.921Z,31.80
2022-10-24T18:07:58.099Z,31.50
2022-10-24T18:10:26.288Z,31.50
2022-10-24T18:12:54.481Z,31.30
2022-10-24T18:15:23.248Z,31.20
2022-10-24T18:17:51.383Z,31.00
2022-10-24T18:20:19.579Z,31.00
2022-10-24T18:22:49.762Z,30.90
2022-10-24T18:25:22.690Z,30.70
2022-10-24T18:27:51.604Z,31.10
2022-10-24T18:30:20.247Z,31.50
2022-10-24T18:32:48.587Z,31.60
2022-10-24T18:35:16.978Z,31.50
2022-10-24T18:37:45.342Z,31.40
2022-10-24T18:40:16.290Z,31.30
2022-10-24T18:42:47.905Z,31.10
2022-10-24T18:45:19.970Z,31.00
2022-10-24T18:47:48.897Z,30.90
2022-10-24T18:50:19.108Z,30.70
2022-10-24T18:52:50.497Z,30.70
2022-10-24T18:55:21.177Z,31.10
2022-10-24T18:57:49.942Z,31.30
2022-10-24T19:00:19.506Z,31.60
2022-10-24T19:02:51.970Z,32.20
2022-10-24T19:05:22.505Z,31.40
2022-10-24T19:07:50.979Z,31.30
2022-10-24T19:10:22.923Z,31.10
2022-10-24T19:12:51.515Z,31.00
2022-10-24T19:15:20.652Z,30.90
2022-10-24T19:17:48.941Z,30.90
2022-10-24T19:20:19.057Z,30.80
2022-10-24T19:22:47.670Z,30.70
2022-10-24T19:25:16.294Z,31.00
2022-10-24T19:27:45.997Z,31.30
2022-10-24T19:30:14.831Z,31.50
2022-10-24T19:32:43.057Z,31.80
2022-10-24T19:35:11.365Z,31.90
2022-10-24T19:37:39.514Z,32.20
2022-10-24T19:40:09.224Z,31.90
2022-10-24T19:42:37.388Z,31.80
2022-10-24T19:45:07.973Z,31.60
2022-10-24T19:47:36.134Z,31.50
2022-10-24T19:50:04.705Z,31.30
2022-10-24T19:52:32.853Z,31.30
2022-10-24T19:55:01.020Z,31.10
2022-10-24T19:57:29.628Z,31.00
2022-10-24T19:59:57.802Z,31.30
2022-10-24T20:02:28.344Z,31.50
2022-10-24T20:04:56.494Z,31.80
2022-10-24T20:07:24.625Z,31.80
2022-10-24T20:09:52.741Z,31.50
2022-10-24T20:12:20.937Z,31.40
2022-10-24T20:14:49.087Z,31.20
2022-10-24T20:17:17.739Z,31.10
2022-10-24T20:19:47.347Z,31.00
2022-10-24T20:22:15.466Z,30.90
2022-10-24T20:24:43.623Z,30.80
2022-10-24T20:27:11.781Z,30.90
2022-10-24T20:29:39.980Z,31.10
2022-10-24T20:32:08.732Z,31.60
2022-10-24T20:34:36.882Z,31.70
2022-10-24T20:37:06.994Z,31.40
2022-10-24T20:39:35.612Z,31.30
2022-10-24T20:42:03.819Z,31.20
2022-10-24T20:44:31.924Z,31.10
2022-10-24T20:47:00.112Z,30.90
2022-10-24T20:49:28.247Z,30.90
2022-10-24T20:51:56.397Z,30.70
2022-10-24T20:54:26.114Z,30.70
2022-10-24T20:56:54.381Z,31.10
2022-10-24T20:59:22.832Z,31.50
2022-10-24T21:01:51.119Z,31.50
2022-10-24T21:04:20.815Z,31.50
2022-10-24T21:06:49.165Z,31.30
2022-10-24T21:09:17.348Z,31.10
2022-10-24T21:11:46.886Z,31.10
2022-10-24T21:14:15.051Z,31.00
2022-10-24T21:16:43.223Z,30.90
2022-10-24T21:19:11.357Z,30.80
2022-10-24T21:21:39.856Z,30.70
2022-10-24T21:24:08.505Z,30.90
2022-10-24T21:26:38.398Z,31.30
2022-10-24T21:29:14.935Z,31.50
2022-10-24T21:31:49.894Z,31.80
2022-10-24T21:34:18.143Z,31.90
2022-10-24T21:36:46.334Z,32.00
2022-10-24T21:39:14.874Z,31.90
2022-10-24T21:41:43.117Z,31.80
2022-10-24T21:44:12.648Z,31.60
2022-10-24T21:46:40.801Z,31.50
2022-10-24T21:49:09.494Z,31.40
2022-10-24T21:51:39.266Z,31.20
2022-10-24T21:54:08.905Z,31.20
2022-10-24T21:56:37.812Z,31.00
2022-10-24T21:59:07.226Z,30.90
2022-10-24T22:01:37.388Z,31.30
2022-10-24T22:04:06.315Z,31.60
2022-10-24T22:06:35.554Z,31.80
2022-10-24T22:09:03.856Z,31.60
2022-10-24T22:11:32.869Z,31.50
2022-10-24T22:14:01.013Z,31.30
2022-10-24T22:16:30.422Z,31.30
2022-10-24T22:19:01.864Z,31.10
2022-10-24T22:21:31.406Z,31.00
2022-10-24T22:23:59.907Z,30.90
2022-10-24T22:26:28.129Z,30.80
2022-10-24T22:28:57.188Z,30.90
2022-10-24T22:31:25.965Z,31.40
2022-10-24T22:33:54.360Z,31.60
2022-10-24T22:36:31.298Z,31.70
2022-10-24T22:39:00.015Z,31.50
2022-10-24T22:41:28.144Z,31.30
2022-10-24T22:43:56.833Z,31.10
2022-10-24T22:46:32.073Z,31.10
2022-10-24T22:49:02.786Z,31.00
2022-10-24T22:51:33.095Z,30.90
2022-10-24T22:54:01.763Z,30.70
2022-10-24T22:56:33.474Z,30.60
2022-10-24T22:59:02.157Z,31.80
2022-10-24T23:01:40.218Z,31.50
2022-10-24T23:04:17.241Z,31.70
2022-10-24T23:06:48.072Z,31.40
2022-10-24T23:09:16.189Z,31.30
2022-10-24T23:11:44.838Z,31.20
2022-10-24T23:14:13.463Z,31.00
2022-10-24T23:16:43.851Z,30.90
2022-10-24T23:19:16.320Z,30.80
2022-10-24T23:21:48.865Z,30.80
2022-10-24T23:24:17.308Z,30.70
2022-10-24T23:26:48.738Z,31.10
2022-10-24T23:29:19.351Z,31.50
2022-10-24T23:31:48.003Z,31.60
2022-10-24T23:34:16.947Z,31.90
2022-10-24T23:36:46.838Z,32.10
2022-10-24T23:39:15.547Z,32.30
2022-10-24T23:41:44.356Z,32.00
2022-10-24T23:44:13.046Z,31.80
2022-10-24T23:46:44.647Z,31.60
2022-10-24T23:49:24.207Z,31.50
2022-10-24T23:51:56.564Z,31.40
2022-10-24T23:54:26.540Z,31.20
2022-10-24T23:56:55.264Z,31.10
2022-10-24T23:59:23.449Z,31.00
